sensor_id;sensor_type;location;lat;lon;timestamp;pressure;altitude;pressure_sealevel;temperature;humidity
39937;BME280;27803;42.740;23.340;2022-12-13T00:01:14;94970.25;;;-0.06;100.00
39937;BME280;27803;42.740;23.340;2022-12-13T00:03:40;94975.00;;;-0.11;100.00
39937;BME280;27803;42.740;23.340;2022-12-13T00:06:06;94975.66;;;-0.09;100.00
39937;BME280;27803;42.740;23.340;2022-12-13T00:08:32;95007.53;;;-0.02;100.00
39937;BME280;27803;42.740;23.340;2022-12-13T00:11:03;94968.66;;;-0.17;100.00
39937;BME280;27803;42.740;23.340;2022-12-13T00:13:29;95033.31;;;0.06;100.00
39937;BME280;27803;42.740;23.340;2022-12-13T00:15:56;94996.38;;;0.07;100.00
39937;BME280;27803;42.740;23.340;2022-12-13T00:18:22;95014.59;;;-0.04;100.00
39937;BME280;27803;42.740;23.340;2022-12-13T00:20:47;95029.72;;;-0.01;100.00
39937;BME280;27803;42.740;23.340;2022-12-13T00:23:12;95021.81;;;0.10;100.00
39937;BME280;27803;42.740;23.340;2022-12-13T00:25:38;94983.22;;;-0.08;100.00
39937;BME280;27803;42.740;23.340;2022-12-13T00:28:03;95018.66;;;0.16;100.00
39937;BME280;27803;42.740;23.340;2022-12-13T00:30:29;95037.75;;;0.14;100.00
39937;BME280;27803;42.740;23.340;2022-12-13T00:32:57;95027.16;;;-0.01;100.00
39937;BME280;27803;42.740;23.340;2022-12-13T00:35:22;94988.59;;;-0.28;100.00
39937;BME280;27803;42.740;23.340;2022-12-13T00:37:47;95024.75;;;-0.12;100.00
39937;BME280;27803;42.740;23.340;2022-12-13T00:40:13;95021.16;;;-0.19;100.00
39937;BME280;27803;42.740;23.340;2022-12-13T00:42:38;94985.22;;;-0.29;100.00
39937;BME280;27803;42.740;23.340;2022-12-13T00:45:04;95019.88;;;-0.06;100.00
39937;BME280;27803;42.740;23.340;2022-12-13T00:47:29;95003.34;;;-0.30;100.00
39937;BME280;27803;42.740;23.340;2022-12-13T00:49:55;94987.94;;;-0.40;100.00
39937;BME280;27803;42.740;23.340;2022-12-13T00:52:21;95028.75;;;-0.27;100.00
39937;BME280;27803;42.740;23.340;2022-12-13T00:54:46;95037.34;;;-0.09;100.00
39937;BME280;27803;42.740;23.340;2022-12-13T00:57:11;94986.59;;;-0.35;100.00
39937;BME280;27803;42.740;23.340;2022-12-13T00:59:37;95020.84;;;-0.16;100.00
39937;BME280;27803;42.740;23.340;2022-12-13T01:02:02;95019.81;;;-0.23;100.00
39937;BME280;27803;42.740;23.340;2022-12-13T01:04:28;95020.91;;;-0.26;100.00
39937;BME280;27803;42.740;23.340;2022-12-13T01:06:53;95017.41;;;-0.35;100.00
39937;BME280;27803;42.740;23.340;2022-12-13T01:09:24;95029.25;;;-0.14;100.00
39937;BME280;27803;42.740;23.340;2022-12-13T01:11:59;95026.66;;;-0.14;100.00
39937;BME280;27803;42.740;23.340;2022-12-13T01:14:26;95004.94;;;-0.29;100.00
39937;BME280;27803;42.740;23.340;2022-12-13T01:16:51;95038.56;;;-0.13;100.00
39937;BME280;27803;42.740;23.340;2022-12-13T01:19:21;95030.97;;;-0.05;100.00
39937;BME280;27803;42.740;23.340;2022-12-13T01:21:46;95004.16;;;-0.40;100.00
39937;BME280;27803;42.740;23.340;2022-12-13T01:24:12;95034.38;;;-0.14;100.00
39937;BME280;27803;42.740;23.340;2022-12-13T01:26:37;95034.38;;;-0.14;100.00
39937;BME280;27803;42.740;23.340;2022-12-13T01:29:03;95030.00;;;-0.04;100.00
39937;BME280;27803;42.740;23.340;2022-12-13T01:31:30;95004.94;;;-0.29;100.00
39937;BME280;27803;42.740;23.340;2022-12-13T01:33:55;95001.75;;;-0.41;100.00
39937;BME280;27803;42.740;23.340;2022-12-13T01:36:22;95033.31;;;-0.21;100.00
39937;BME280;27803;42.740;23.340;2022-12-13T01:38:48;95026.31;;;-0.29;100.00
39937;BME280;27803;42.740;23.340;2022-12-13T01:41:18;95043.59;;;-0.21;100.00
39937;BME280;27803;42.740;23.340;2022-12-13T01:46:14;95052.81;;;-0.28;100.00
39937;BME280;27803;42.740;23.340;2022-12-13T01:48:44;95041.88;;;-0.30;100.00
39937;BME280;27803;42.740;23.340;2022-12-13T01:51:14;95060.69;;;-0.40;100.00
39937;BME280;27803;42.740;23.340;2022-12-13T01:53:43;95048.22;;;-0.35;100.00
39937;BME280;27803;42.740;23.340;2022-12-13T01:56:20;95038.75;;;-0.34;100.00
39937;BME280;27803;42.740;23.340;2022-12-13T01:58:49;95050.41;;;-0.40;100.00
39937;BME280;27803;42.740;23.340;2022-12-13T02:01:17;95054.19;;;-0.44;100.00
39937;BME280;27803;42.740;23.340;2022-12-13T02:03:43;95011.81;;;-0.67;100.00
39937;BME280;27803;42.740;23.340;2022-12-13T02:06:14;95005.44;;;-0.63;100.00
39937;BME280;27803;42.740;23.340;2022-12-13T02:08:41;95041.50;;;-0.45;100.00
39937;BME280;27803;42.740;23.340;2022-12-13T02:11:09;95052.56;;;-0.45;100.00
39937;BME280;27803;42.740;23.340;2022-12-13T02:13:35;95034.75;;;-0.56;100.00
39937;BME280;27803;42.740;23.340;2022-12-13T02:16:15;95057.44;;;-0.42;100.00
39937;BME280;27803;42.740;23.340;2022-12-13T02:26:55;95036.69;;;-0.77;100.00
39937;BME280;27803;42.740;23.340;2022-12-13T02:32:38;95041.81;;;-0.77;100.00
39937;BME280;27803;42.740;23.340;2022-12-13T02:35:15;95045.59;;;-1.01;100.00
39937;BME280;27803;42.740;23.340;2022-12-13T02:43:07;95054.25;;;-1.02;100.00
39937;BME280;27803;42.740;23.340;2022-12-13T02:45:44;95024.53;;;-1.33;100.00
39937;BME280;27803;42.740;23.340;2022-12-13T02:48:11;95075.84;;;-1.23;100.00
39937;BME280;27803;42.740;23.340;2022-12-13T02:50:37;95030.72;;;-1.45;100.00
39937;BME280;27803;42.740;23.340;2022-12-13T02:53:05;95059.78;;;-1.25;100.00
39937;BME280;27803;42.740;23.340;2022-12-13T02:55:32;95059.38;;;-1.31;100.00
39937;BME280;27803;42.740;23.340;2022-12-13T02:58:00;95053.41;;;-1.31;100.00
39937;BME280;27803;42.740;23.340;2022-12-13T03:03:31;95066.38;;;-1.42;100.00
39937;BME280;27803;42.740;23.340;2022-12-13T03:15:29;95044.19;;;-1.63;100.00
39937;BME280;27803;42.740;23.340;2022-12-13T03:18:06;95067.53;;;-1.66;100.00
39937;BME280;27803;42.740;23.340;2022-12-13T03:20:56;95057.94;;;-1.64;100.00
39937;BME280;27803;42.740;23.340;2022-12-13T03:23:23;95067.53;;;-1.75;100.00
39937;BME280;27803;42.740;23.340;2022-12-13T03:25:51;95069.66;;;-1.71;100.00
39937;BME280;27803;42.740;23.340;2022-12-13T03:28:17;95081.66;;;-1.81;100.00
39937;BME280;27803;42.740;23.340;2022-12-13T03:30:43;95076.53;;;-1.81;100.00
39937;BME280;27803;42.740;23.340;2022-12-13T03:33:08;95078.44;;;-1.83;100.00
39937;BME280;27803;42.740;23.340;2022-12-13T03:35:34;95060.31;;;-1.91;100.00
39937;BME280;27803;42.740;23.340;2022-12-13T03:37:59;95077.31;;;-1.90;100.00
39937;BME280;27803;42.740;23.340;2022-12-13T03:40:27;95049.50;;;-2.04;100.00
39937;BME280;27803;42.740;23.340;2022-12-13T03:42:54;95089.69;;;-1.95;100.00
39937;BME280;27803;42.740;23.340;2022-12-13T03:45:19;95074.50;;;-1.87;100.00
39937;BME280;27803;42.740;23.340;2022-12-13T03:47:45;95043.78;;;-2.17;100.00
39937;BME280;27803;42.740;23.340;2022-12-13T03:50:10;95079.63;;;-2.17;100.00
39937;BME280;27803;42.740;23.340;2022-12-13T03:52:36;95098.75;;;-2.21;100.00
39937;BME280;27803;42.740;23.340;2022-12-13T03:55:01;95063.50;;;-2.59;100.00
39937;BME280;27803;42.740;23.340;2022-12-13T03:57:26;95101.63;;;-2.36;100.00
39937;BME280;27803;42.740;23.340;2022-12-13T03:59:53;95107.13;;;-2.40;100.00
39937;BME280;27803;42.740;23.340;2022-12-13T04:02:18;95120.56;;;-2.48;100.00
39937;BME280;27803;42.740;23.340;2022-12-13T04:04:44;95087.78;;;-2.54;100.00
39937;BME280;27803;42.740;23.340;2022-12-13T04:07:09;95089.22;;;-2.61;100.00
39937;BME280;27803;42.740;23.340;2022-12-13T04:09:34;95114.50;;;-2.47;100.00
39937;BME280;27803;42.740;23.340;2022-12-13T04:12:00;95123.53;;;-2.43;100.00
39937;BME280;27803;42.740;23.340;2022-12-13T04:14:44;95130.16;;;-2.40;100.00
39937;BME280;27803;42.740;23.340;2022-12-13T04:17:09;95112.56;;;-2.54;100.00
39937;BME280;27803;42.740;23.340;2022-12-13T04:19:34;95129.59;;;-2.44;100.00
39937;BME280;27803;42.740;23.340;2022-12-13T04:22:00;95098.88;;;-2.85;100.00
39937;BME280;27803;42.740;23.340;2022-12-13T04:24:25;95130.66;;;-2.67;100.00
39937;BME280;27803;42.740;23.340;2022-12-13T04:26:50;95136.31;;;-2.84;100.00
39937;BME280;27803;42.740;23.340;2022-12-13T04:29:16;95115.91;;;-3.07;100.00
39937;BME280;27803;42.740;23.340;2022-12-13T04:31:41;95146.91;;;-2.89;100.00
39937;BME280;27803;42.740;23.340;2022-12-13T04:34:07;95108.75;;;-3.24;100.00
39937;BME280;27803;42.740;23.340;2022-12-13T04:36:32;95156.44;;;-2.91;100.00
39937;BME280;27803;42.740;23.340;2022-12-13T04:39:01;95115.69;;;-3.04;100.00
39937;BME280;27803;42.740;23.340;2022-12-13T04:41:27;95121.25;;;-2.99;100.00
39937;BME280;27803;42.740;23.340;2022-12-13T04:43:53;95128.91;;;-2.99;100.00
39937;BME280;27803;42.740;23.340;2022-12-13T04:46:19;95127.03;;;-2.97;100.00
39937;BME280;27803;42.740;23.340;2022-12-13T04:48:45;95163.16;;;-2.79;100.00
39937;BME280;27803;42.740;23.340;2022-12-13T04:51:10;95171.06;;;-2.82;100.00
39937;BME280;27803;42.740;23.340;2022-12-13T04:53:35;95169.75;;;-2.76;100.00
39937;BME280;27803;42.740;23.340;2022-12-13T04:56:02;95130.66;;;-2.99;100.00
39937;BME280;27803;42.740;23.340;2022-12-13T04:58:28;95172.53;;;-2.68;100.00
39937;BME280;27803;42.740;23.340;2022-12-13T05:00:53;95185.75;;;-2.63;100.00
39937;BME280;27803;42.740;23.340;2022-12-13T05:03:19;95129.00;;;-2.89;100.00
39937;BME280;27803;42.740;23.340;2022-12-13T05:05:44;95157.91;;;-2.77;100.00
39937;BME280;27803;42.740;23.340;2022-12-13T05:08:09;95172.78;;;-2.71;100.00
39937;BME280;27803;42.740;23.340;2022-12-13T05:10:36;95190.56;;;-2.70;100.00
39937;BME280;27803;42.740;23.340;2022-12-13T05:13:02;95161.19;;;-2.86;100.00
39937;BME280;27803;42.740;23.340;2022-12-13T05:15:28;95135.41;;;-2.95;100.00
39937;BME280;27803;42.740;23.340;2022-12-13T05:17:55;95144.94;;;-2.97;100.00
39937;BME280;27803;42.740;23.340;2022-12-13T05:20:23;95169.56;;;-2.84;100.00
39937;BME280;27803;42.740;23.340;2022-12-13T05:22:48;95141.91;;;-2.90;100.00
39937;BME280;27803;42.740;23.340;2022-12-13T05:25:14;95144.25;;;-2.99;100.00
39937;BME280;27803;42.740;23.340;2022-12-13T05:27:39;95175.78;;;-2.66;100.00
39937;BME280;27803;42.740;23.340;2022-12-13T05:30:05;95136.25;;;-2.73;100.00
39937;BME280;27803;42.740;23.340;2022-12-13T05:32:34;95175.72;;;-2.55;100.00
39937;BME280;27803;42.740;23.340;2022-12-13T05:35:03;95200.16;;;-2.51;100.00
39937;BME280;27803;42.740;23.340;2022-12-13T05:37:28;95159.03;;;-2.70;100.00
39937;BME280;27803;42.740;23.340;2022-12-13T05:39:54;95203.41;;;-2.49;100.00
39937;BME280;27803;42.740;23.340;2022-12-13T05:42:19;95193.56;;;-2.33;100.00
39937;BME280;27803;42.740;23.340;2022-12-13T05:44:45;95175.28;;;-2.60;100.00
39937;BME280;27803;42.740;23.340;2022-12-13T05:47:10;95218.25;;;-2.43;100.00
39937;BME280;27803;42.740;23.340;2022-12-13T05:49:36;95208.34;;;-2.36;100.00
39937;BME280;27803;42.740;23.340;2022-12-13T05:52:01;95202.16;;;-2.34;100.00
39937;BME280;27803;42.740;23.340;2022-12-13T05:54:27;95169.47;;;-2.62;100.00
39937;BME280;27803;42.740;23.340;2022-12-13T05:56:52;95213.53;;;-2.26;100.00
39937;BME280;27803;42.740;23.340;2022-12-13T05:59:18;95180.81;;;-2.44;100.00
39937;BME280;27803;42.740;23.340;2022-12-13T06:01:43;95225.09;;;-2.32;100.00
39937;BME280;27803;42.740;23.340;2022-12-13T06:04:08;95234.59;;;-2.23;100.00
39937;BME280;27803;42.740;23.340;2022-12-13T06:06:34;95224.22;;;-2.21;100.00
39937;BME280;27803;42.740;23.340;2022-12-13T06:08:59;95230.28;;;-2.22;100.00
39937;BME280;27803;42.740;23.340;2022-12-13T06:11:25;95230.84;;;-2.19;100.00
39937;BME280;27803;42.740;23.340;2022-12-13T06:13:50;95224.41;;;-2.13;100.00
39937;BME280;27803;42.740;23.340;2022-12-13T06:16:17;95226.09;;;-2.03;100.00
39937;BME280;27803;42.740;23.340;2022-12-13T06:18:42;95235.47;;;-1.92;100.00
39937;BME280;27803;42.740;23.340;2022-12-13T06:21:07;95192.00;;;-2.24;100.00
39937;BME280;27803;42.740;23.340;2022-12-13T06:23:33;95229.94;;;-1.97;100.00
39937;BME280;27803;42.740;23.340;2022-12-13T06:26:02;95195.50;;;-2.25;100.00
39937;BME280;27803;42.740;23.340;2022-12-13T06:28:28;95213.50;;;-2.15;100.00
39937;BME280;27803;42.740;23.340;2022-12-13T06:30:53;95227.59;;;-2.00;100.00
39937;BME280;27803;42.740;23.340;2022-12-13T06:33:19;95238.09;;;-2.03;100.00
39937;BME280;27803;42.740;23.340;2022-12-13T06:35:45;95225.44;;;-2.05;100.00
39937;BME280;27803;42.740;23.340;2022-12-13T06:38:11;95199.06;;;-2.16;100.00
39937;BME280;27803;42.740;23.340;2022-12-13T06:40:38;95210.94;;;-2.15;100.00
39937;BME280;27803;42.740;23.340;2022-12-13T06:43:04;95213.53;;;-2.26;100.00
39937;BME280;27803;42.740;23.340;2022-12-13T06:45:29;95266.78;;;-2.09;100.00
39937;BME280;27803;42.740;23.340;2022-12-13T06:47:55;95268.91;;;-2.14;100.00
39937;BME280;27803;42.740;23.340;2022-12-13T06:50:21;95251.59;;;-2.22;100.00
39937;BME280;27803;42.740;23.340;2022-12-13T06:52:46;95253.34;;;-2.02;100.00
39937;BME280;27803;42.740;23.340;2022-12-13T06:55:12;95256.28;;;-2.06;100.00
39937;BME280;27803;42.740;23.340;2022-12-13T06:57:37;95222.78;;;-2.14;100.00
39937;BME280;27803;42.740;23.340;2022-12-13T07:00:03;95223.47;;;-2.12;100.00
39937;BME280;27803;42.740;23.340;2022-12-13T07:02:29;95261.03;;;-1.81;100.00
39937;BME280;27803;42.740;23.340;2022-12-13T07:04:55;95214.81;;;-2.00;100.00
39937;BME280;27803;42.740;23.340;2022-12-13T07:07:21;95229.34;;;-1.80;100.00
39937;BME280;27803;42.740;23.340;2022-12-13T07:09:46;95261.75;;;-1.48;100.00
39937;BME280;27803;42.740;23.340;2022-12-13T07:12:11;95267.38;;;-1.54;100.00
39937;BME280;27803;42.740;23.340;2022-12-13T07:14:37;95274.19;;;-1.65;100.00
39937;BME280;27803;42.740;23.340;2022-12-13T07:17:02;95265.38;;;-1.72;100.00
39937;BME280;27803;42.740;23.340;2022-12-13T07:19:28;95271.88;;;-1.68;100.00
39937;BME280;27803;42.740;23.340;2022-12-13T07:21:53;95242.41;;;-1.83;100.00
39937;BME280;27803;42.740;23.340;2022-12-13T07:24:18;95279.00;;;-1.50;100.00
39937;BME280;27803;42.740;23.340;2022-12-13T07:26:44;95277.44;;;-1.42;100.00
39937;BME280;27803;42.740;23.340;2022-12-13T07:29:09;95294.69;;;-1.44;100.00
39937;BME280;27803;42.740;23.340;2022-12-13T07:31:35;95248.50;;;-1.53;100.00
39937;BME280;27803;42.740;23.340;2022-12-13T07:34:03;95261.50;;;-1.45;100.00
39937;BME280;27803;42.740;23.340;2022-12-13T07:36:28;95268.81;;;-1.61;100.00
39937;BME280;27803;42.740;23.340;2022-12-13T07:38:55;95261.06;;;-1.71;100.00
39937;BME280;27803;42.740;23.340;2022-12-13T07:41:22;95299.00;;;-1.44;100.00
39937;BME280;27803;42.740;23.340;2022-12-13T07:43:48;95294.94;;;-1.47;100.00
39937;BME280;27803;42.740;23.340;2022-12-13T07:46:13;95255.50;;;-1.55;100.00
39937;BME280;27803;42.740;23.340;2022-12-13T07:48:39;95265.50;;;-1.52;100.00
39937;BME280;27803;42.740;23.340;2022-12-13T07:51:07;95308.41;;;-1.54;100.00
39937;BME280;27803;42.740;23.340;2022-12-13T07:53:33;95309.28;;;-1.44;100.00
39937;BME280;27803;42.740;23.340;2022-12-13T07:56:06;95315.97;;;-1.02;100.00
39937;BME280;27803;42.740;23.340;2022-12-13T07:58:32;95275.78;;;-0.82;100.00
39937;BME280;27803;42.740;23.340;2022-12-13T08:01:03;95303.16;;;-0.52;100.00
39937;BME280;27803;42.740;23.340;2022-12-13T08:03:29;95311.34;;;-0.77;100.00
39937;BME280;27803;42.740;23.340;2022-12-13T08:08:23;95302.66;;;-0.36;100.00
39937;BME280;27803;42.740;23.340;2022-12-13T08:10:48;95263.44;;;-0.48;100.00
39937;BME280;27803;42.740;23.340;2022-12-13T08:13:14;95262.38;;;-0.45;100.00
39937;BME280;27803;42.740;23.340;2022-12-13T08:15:39;95298.50;;;-0.08;100.00
39937;BME280;27803;42.740;23.340;2022-12-13T08:18:04;95292.28;;;-0.06;100.00
39937;BME280;27803;42.740;23.340;2022-12-13T08:20:30;95311.88;;;0.05;100.00
39937;BME280;27803;42.740;23.340;2022-12-13T08:22:57;95278.06;;;0.00;100.00
39937;BME280;27803;42.740;23.340;2022-12-13T08:25:23;95284.53;;;0.04;100.00
39937;BME280;27803;42.740;23.340;2022-12-13T08:27:49;95316.19;;;0.24;100.00
39937;BME280;27803;42.740;23.340;2022-12-13T08:30:14;95325.69;;;0.23;100.00
39937;BME280;27803;42.740;23.340;2022-12-13T08:32:40;95312.94;;;0.22;100.00
39937;BME280;27803;42.740;23.340;2022-12-13T08:35:05;95338.13;;;0.47;100.00
39937;BME280;27803;42.740;23.340;2022-12-13T08:37:31;95310.75;;;0.56;100.00
39937;BME280;27803;42.740;23.340;2022-12-13T08:39:56;95308.03;;;0.67;100.00
39937;BME280;27803;42.740;23.340;2022-12-13T08:42:22;95309.22;;;0.82;100.00
39937;BME280;27803;42.740;23.340;2022-12-13T08:44:50;95281.41;;;0.95;100.00
39937;BME280;27803;42.740;23.340;2022-12-13T08:47:17;95305.38;;;1.33;100.00
39937;BME280;27803;42.740;23.340;2022-12-13T08:49:43;95306.06;;;1.53;100.00
39937;BME280;27803;42.740;23.340;2022-12-13T08:52:08;95308.97;;;1.68;100.00
39937;BME280;27803;42.740;23.340;2022-12-13T08:54:34;95299.69;;;1.75;100.00
39937;BME280;27803;42.740;23.340;2022-12-13T08:56:59;95314.84;;;1.60;100.00
39937;BME280;27803;42.740;23.340;2022-12-13T08:59:25;95306.91;;;1.89;100.00
39937;BME280;27803;42.740;23.340;2022-12-13T09:01:51;95294.59;;;1.47;100.00
39937;BME280;27803;42.740;23.340;2022-12-13T09:04:16;95287.84;;;1.37;100.00
39937;BME280;27803;42.740;23.340;2022-12-13T09:06:42;95270.63;;;1.37;100.00
39937;BME280;27803;42.740;23.340;2022-12-13T09:09:08;95287.13;;;1.17;100.00
39937;BME280;27803;42.740;23.340;2022-12-13T09:11:33;95280.47;;;1.24;100.00
39937;BME280;27803;42.740;23.340;2022-12-13T09:13:58;95295.16;;;1.41;100.00
39937;BME280;27803;42.740;23.340;2022-12-13T09:16:24;95287.69;;;1.66;100.00
39937;BME280;27803;42.740;23.340;2022-12-13T09:18:53;95279.00;;;1.67;100.00
39937;BME280;27803;42.740;23.340;2022-12-13T09:21:19;95241.81;;;1.51;100.00
39937;BME280;27803;42.740;23.340;2022-12-13T09:23:44;95275.25;;;2.14;100.00
39937;BME280;27803;42.740;23.340;2022-12-13T09:26:12;95262.19;;;2.34;100.00
39937;BME280;27803;42.740;23.340;2022-12-13T09:28:38;95269.41;;;2.30;99.32
39937;BME280;27803;42.740;23.340;2022-12-13T09:31:11;95266.91;;;1.85;95.79
39937;BME280;27803;42.740;23.340;2022-12-13T09:33:37;95260.38;;;1.73;94.18
39937;BME280;27803;42.740;23.340;2022-12-13T09:36:04;95257.22;;;1.61;93.55
39937;BME280;27803;42.740;23.340;2022-12-13T09:38:31;95263.69;;;1.83;95.11
39937;BME280;27803;42.740;23.340;2022-12-13T09:40:59;95281.41;;;1.50;93.20
39937;BME280;27803;42.740;23.340;2022-12-13T09:43:30;95255.41;;;1.44;94.68
39937;BME280;27803;42.740;23.340;2022-12-13T09:45:57;95277.38;;;1.66;94.97
39937;BME280;27803;42.740;23.340;2022-12-13T09:48:24;95258.59;;;1.55;93.09
39937;BME280;27803;42.740;23.340;2022-12-13T09:50:50;95257.16;;;1.71;94.37
39937;BME280;27803;42.740;23.340;2022-12-13T09:53:18;95269.38;;;1.69;93.70
39937;BME280;27803;42.740;23.340;2022-12-13T09:55:49;95252.25;;;1.85;93.57
39937;BME280;27803;42.740;23.340;2022-12-13T09:58:29;95251.66;;;2.09;94.94
39937;BME280;27803;42.740;23.340;2022-12-13T10:00:56;95266.50;;;1.72;92.70
39937;BME280;27803;42.740;23.340;2022-12-13T10:03:23;95253.91;;;1.69;93.91
39937;BME280;27803;42.740;23.340;2022-12-13T10:05:56;95262.50;;;1.95;95.88
39937;BME280;27803;42.740;23.340;2022-12-13T10:08:26;95250.47;;;2.21;96.06
39937;BME280;27803;42.740;23.340;2022-12-13T10:10:52;95240.97;;;2.22;94.31
39937;BME280;27803;42.740;23.340;2022-12-13T10:13:20;95248.19;;;2.18;92.86
39937;BME280;27803;42.740;23.340;2022-12-13T10:16:01;95263.44;;;2.29;92.84
39937;BME280;27803;42.740;23.340;2022-12-13T10:18:40;95238.88;;;2.69;94.06
39937;BME280;27803;42.740;23.340;2022-12-13T10:21:22;95246.25;;;2.90;92.74
39937;BME280;27803;42.740;23.340;2022-12-13T10:23:50;95224.72;;;2.81;90.09
39937;BME280;27803;42.740;23.340;2022-12-13T10:26:16;95223.97;;;2.63;89.71
39937;BME280;27803;42.740;23.340;2022-12-13T10:28:41;95230.81;;;2.72;90.66
39937;BME280;27803;42.740;23.340;2022-12-13T10:31:14;95222.53;;;2.60;91.39
39937;BME280;27803;42.740;23.340;2022-12-13T10:33:50;95170.66;;;2.46;92.71
39937;BME280;27803;42.740;23.340;2022-12-13T10:36:35;95181.53;;;2.57;93.76
39937;BME280;27803;42.740;23.340;2022-12-13T10:39:03;95210.94;;;2.99;94.26
39937;BME280;27803;42.740;23.340;2022-12-13T10:41:37;95206.16;;;3.20;90.99
39937;BME280;27803;42.740;23.340;2022-12-13T10:46:35;95205.59;;;3.58;87.05
39937;BME280;27803;42.740;23.340;2022-12-13T10:49:01;95187.81;;;3.47;84.95
39937;BME280;27803;42.740;23.340;2022-12-13T10:51:37;95190.84;;;3.26;82.29
39937;BME280;27803;42.740;23.340;2022-12-13T10:54:04;95179.06;;;3.32;83.34
39937;BME280;27803;42.740;23.340;2022-12-13T10:56:49;95182.63;;;3.31;84.30
39937;BME280;27803;42.740;23.340;2022-12-13T11:01:45;95135.59;;;2.09;86.11
39937;BME280;27803;42.740;23.340;2022-12-13T11:04:32;95185.22;;;2.29;88.72
39937;BME280;27803;42.740;23.340;2022-12-13T11:06:59;95166.31;;;2.46;90.17
39937;BME280;27803;42.740;23.340;2022-12-13T11:09:30;95179.53;;;2.77;91.91
39937;BME280;27803;42.740;23.340;2022-12-13T11:12:02;95162.84;;;3.06;92.59
39937;BME280;27803;42.740;23.340;2022-12-13T11:14:34;95130.25;;;3.05;92.12
39937;BME280;27803;42.740;23.340;2022-12-13T11:17:06;95167.13;;;3.39;91.34
39937;BME280;27803;42.740;23.340;2022-12-13T11:19:43;95121.91;;;2.77;90.59
39937;BME280;27803;42.740;23.340;2022-12-13T11:22:22;95163.16;;;3.03;89.45
39937;BME280;27803;42.740;23.340;2022-12-13T11:24:50;95162.78;;;2.89;89.23
39937;BME280;27803;42.740;23.340;2022-12-13T11:30:21;95163.56;;;2.48;92.14
39937;BME280;27803;42.740;23.340;2022-12-13T11:35:56;95169.38;;;2.50;95.90
39937;BME280;27803;42.740;23.340;2022-12-13T11:38:31;95164.66;;;2.71;95.54
39937;BME280;27803;42.740;23.340;2022-12-13T11:41:03;95162.78;;;2.89;94.81
39937;BME280;27803;42.740;23.340;2022-12-13T11:43:39;95170.25;;;3.01;93.93
39937;BME280;27803;42.740;23.340;2022-12-13T11:46:19;95168.19;;;3.12;92.89
39937;BME280;27803;42.740;23.340;2022-12-13T11:48:52;95132.47;;;2.91;92.91
39937;BME280;27803;42.740;23.340;2022-12-13T11:51:26;95159.81;;;2.68;91.49
39937;BME280;27803;42.740;23.340;2022-12-13T11:54:00;95158.19;;;2.67;92.34
39937;BME280;27803;42.740;23.340;2022-12-13T11:56:35;95159.25;;;2.90;93.11
39937;BME280;27803;42.740;23.340;2022-12-13T11:59:53;95147.41;;;3.22;93.40
39937;BME280;27803;42.740;23.340;2022-12-13T12:04:51;95153.81;;;3.10;91.44
39937;BME280;27803;42.740;23.340;2022-12-13T12:07:27;95120.06;;;3.03;91.21
39937;BME280;27803;42.740;23.340;2022-12-13T12:10:03;95123.81;;;3.17;91.94
39937;BME280;27803;42.740;23.340;2022-12-13T12:12:37;95127.00;;;3.03;88.96
39937;BME280;27803;42.740;23.340;2022-12-13T12:17:38;95136.97;;;2.89;89.12
39937;BME280;27803;42.740;23.340;2022-12-13T12:20:05;95145.31;;;2.75;88.63
39937;BME280;27803;42.740;23.340;2022-12-13T12:22:44;95133.06;;;2.77;90.27
39937;BME280;27803;42.740;23.340;2022-12-13T12:36:36;95117.53;;;2.69;88.58
39937;BME280;27803;42.740;23.340;2022-12-13T12:39:52;95145.66;;;2.80;90.13
39937;BME280;27803;42.740;23.340;2022-12-13T12:42:33;95140.88;;;3.02;92.85
39937;BME280;27803;42.740;23.340;2022-12-13T12:51:11;95149.69;;;3.33;93.24
39937;BME280;27803;42.740;23.340;2022-12-13T12:56:46;95171.47;;;3.22;90.80
39937;BME280;27803;42.740;23.340;2022-12-13T13:02:04;95169.38;;;3.26;90.54
39937;BME280;27803;42.740;23.340;2022-12-13T13:04:38;95135.78;;;2.76;90.47
39937;BME280;27803;42.740;23.340;2022-12-13T13:07:19;95167.34;;;2.96;91.43
39937;BME280;27803;42.740;23.340;2022-12-13T13:09:47;95176.81;;;2.87;93.06
39937;BME280;27803;42.740;23.340;2022-12-13T13:12:13;95164.44;;;2.99;92.56
39937;BME280;27803;42.740;23.340;2022-12-13T13:14:39;95142.13;;;2.89;93.07
39937;BME280;27803;42.740;23.340;2022-12-13T13:19:44;95171.94;;;3.18;94.33
39937;BME280;27803;42.740;23.340;2022-12-13T13:22:28;95191.78;;;3.17;94.34
39937;BME280;27803;42.740;23.340;2022-12-13T13:27:48;95215.59;;;2.61;94.24
39937;BME280;27803;42.740;23.340;2022-12-13T13:32:40;95192.63;;;2.50;97.93
39937;BME280;27803;42.740;23.340;2022-12-13T13:38:02;95196.16;;;2.49;99.89
39937;BME280;27803;42.740;23.340;2022-12-13T13:43:06;95225.91;;;2.61;100.00
39937;BME280;27803;42.740;23.340;2022-12-13T13:59:22;95192.91;;;2.47;100.00
39937;BME280;27803;42.740;23.340;2022-12-13T14:10:53;95177.03;;;2.34;100.00
39937;BME280;27803;42.740;23.340;2022-12-13T14:16:16;95162.97;;;2.02;100.00
39937;BME280;27803;42.740;23.340;2022-12-13T14:24:51;95177.66;;;1.84;100.00
39937;BME280;27803;42.740;23.340;2022-12-13T14:29:50;95139.03;;;1.48;100.00
39937;BME280;27803;42.740;23.340;2022-12-13T14:32:31;95172.91;;;1.53;100.00
39937;BME280;27803;42.740;23.340;2022-12-13T14:35:01;95148.31;;;1.41;100.00
39937;BME280;27803;42.740;23.340;2022-12-13T14:37:34;95122.84;;;1.38;100.00
39937;BME280;27803;42.740;23.340;2022-12-13T14:42:51;95147.28;;;1.70;100.00
39937;BME280;27803;42.740;23.340;2022-12-13T14:45:26;95144.13;;;1.84;100.00
39937;BME280;27803;42.740;23.340;2022-12-13T14:47:54;95143.47;;;1.82;100.00
39937;BME280;27803;42.740;23.340;2022-12-13T14:50:21;95126.97;;;1.67;100.00
39937;BME280;27803;42.740;23.340;2022-12-13T14:52:48;95164.47;;;1.87;100.00
39937;BME280;27803;42.740;23.340;2022-12-13T14:55:30;95159.88;;;1.99;100.00
39937;BME280;27803;42.740;23.340;2022-12-13T14:57:58;95173.38;;;1.92;100.00